sensor_id;sensor_type;location;lat;lon;timestamp;pressure;altitude;pressure_sealevel;temperature;humidity
66021;BME280;52789;59.980;30.346;2023-08-24T00:02:00;101315.31;;;11.54;100.00
66021;BME280;52789;59.980;30.346;2023-08-24T00:04:26;101326.41;;;11.59;100.00
66021;BME280;52789;59.980;30.346;2023-08-24T00:06:51;101276.00;;;11.30;100.00
66021;BME280;52789;59.980;30.346;2023-08-24T00:09:17;101313.66;;;11.53;100.00
66021;BME280;52789;59.980;30.346;2023-08-24T00:11:42;101309.00;;;11.55;100.00
66021;BME280;52789;59.980;30.346;2023-08-24T00:14:09;101317.75;;;11.65;100.00
66021;BME280;52789;59.980;30.346;2023-08-24T00:16:34;101313.41;;;11.64;100.00
66021;BME280;52789;59.980;30.346;2023-08-24T00:19:00;101320.25;;;11.84;100.00
66021;BME280;52789;59.980;30.346;2023-08-24T00:21:25;101320.94;;;11.86;100.00
66021;BME280;52789;59.980;30.346;2023-08-24T00:23:51;101321.50;;;11.98;100.00
66021;BME280;52789;59.980;30.346;2023-08-24T00:26:18;101332.69;;;12.01;100.00
66021;BME280;52789;59.980;30.346;2023-08-24T00:28:44;101309.63;;;11.92;100.00
66021;BME280;52789;59.980;30.346;2023-08-24T00:31:09;101327.03;;;12.04;100.00
66021;BME280;52789;59.980;30.346;2023-08-24T00:33:35;101325.69;;;12.00;100.00
66021;BME280;52789;59.980;30.346;2023-08-24T00:36:01;101328.00;;;11.95;100.00
66021;BME280;52789;59.980;30.346;2023-08-24T00:38:27;101301.47;;;11.76;100.00
66021;BME280;52789;59.980;30.346;2023-08-24T00:40:53;101335.50;;;11.92;100.00
66021;BME280;52789;59.980;30.346;2023-08-24T00:43:19;101322.91;;;11.84;100.00
66021;BME280;52789;59.980;30.346;2023-08-24T00:45:52;101326.66;;;11.91;100.00
66021;BME280;52789;59.980;30.346;2023-08-24T00:48:20;101322.31;;;11.90;100.00
66021;BME280;52789;59.980;30.346;2023-08-24T00:50:46;101330.00;;;11.93;100.00
66021;BME280;52789;59.980;30.346;2023-08-24T00:53:12;101322.34;;;11.98;100.00
66021;BME280;52789;59.980;30.346;2023-08-24T00:55:38;101335.72;;;12.06;100.00
66021;BME280;52789;59.980;30.346;2023-08-24T00:58:04;101319.72;;;12.06;100.00
66021;BME280;52789;59.980;30.346;2023-08-24T01:00:30;101344.84;;;12.22;100.00
66021;BME280;52789;59.980;30.346;2023-08-24T01:02:55;101313.06;;;12.10;100.00
66021;BME280;52789;59.980;30.346;2023-08-24T01:05:21;101321.97;;;12.19;100.00
66021;BME280;52789;59.980;30.346;2023-08-24T01:07:47;101335.84;;;12.31;100.00
66021;BME280;52789;59.980;30.346;2023-08-24T01:10:12;101313.47;;;12.24;100.00
66021;BME280;52789;59.980;30.346;2023-08-24T01:16:05;101301.38;;;12.12;100.00
66021;BME280;52789;59.980;30.346;2023-08-24T01:18:06;101330.69;;;12.29;100.00
66021;BME280;52789;59.980;30.346;2023-08-24T01:20:34;101322.00;;;12.27;100.00
66021;BME280;52789;59.980;30.346;2023-08-24T01:23:13;101286.19;;;12.12;100.00
66021;BME280;52789;59.980;30.346;2023-08-24T01:25:48;101335.56;;;12.42;100.00
66021;BME280;52789;59.980;30.346;2023-08-24T01:28:16;101316.84;;;12.34;100.00
66021;BME280;52789;59.980;30.346;2023-08-24T01:30:43;101317.88;;;12.41;100.00
66021;BME280;52789;59.980;30.346;2023-08-24T01:33:09;101187.66;;;11.59;100.00
66021;BME280;52789;59.980;30.346;2023-08-24T01:35:37;101332.94;;;12.50;100.00
66021;BME280;52789;59.980;30.346;2023-08-24T01:38:03;101325.09;;;12.49;100.00
66021;BME280;52789;59.980;30.346;2023-08-24T01:40:51;101327.44;;;12.52;100.00
66021;BME280;52789;59.980;30.346;2023-08-24T01:43:20;101316.88;;;12.42;100.00
66021;BME280;52789;59.980;30.346;2023-08-24T01:45:47;101323.75;;;12.45;100.00
66021;BME280;52789;59.980;30.346;2023-08-24T01:48:13;101320.03;;;12.37;100.00
66021;BME280;52789;59.980;30.346;2023-08-24T01:50:40;101320.38;;;12.43;100.00
66021;BME280;52789;59.980;30.346;2023-08-24T01:53:06;101287.56;;;12.16;100.00
66021;BME280;52789;59.980;30.346;2023-08-24T01:55:32;101343.44;;;12.44;100.00
66021;BME280;52789;59.980;30.346;2023-08-24T01:57:58;101318.00;;;12.31;100.00
66021;BME280;52789;59.980;30.346;2023-08-24T02:00:23;101338.56;;;12.39;100.00
66021;BME280;52789;59.980;30.346;2023-08-24T02:02:49;101332.53;;;12.37;100.00
66021;BME280;52789;59.980;30.346;2023-08-24T02:05:14;101324.19;;;12.32;100.00
66021;BME280;52789;59.980;30.346;2023-08-24T02:07:40;101325.66;;;12.26;100.00
66021;BME280;52789;59.980;30.346;2023-08-24T02:10:06;101331.34;;;12.31;100.00
66021;BME280;52789;59.980;30.346;2023-08-24T02:12:32;101325.84;;;12.33;100.00
66021;BME280;52789;59.980;30.346;2023-08-24T02:14:57;101331.53;;;12.38;100.00
66021;BME280;52789;59.980;30.346;2023-08-24T02:17:23;101339.63;;;12.46;100.00
66021;BME280;52789;59.980;30.346;2023-08-24T02:19:49;101323.22;;;12.41;100.00
66021;BME280;52789;59.980;30.346;2023-08-24T02:22:14;101335.47;;;12.52;100.00
66021;BME280;52789;59.980;30.346;2023-08-24T02:24:40;101318.88;;;12.40;100.00
66021;BME280;52789;59.980;30.346;2023-08-24T02:27:05;101341.50;;;12.62;100.00
66021;BME280;52789;59.980;30.346;2023-08-24T02:29:31;101344.00;;;12.63;100.00
66021;BME280;52789;59.980;30.346;2023-08-24T02:31:56;101340.34;;;12.64;100.00
66021;BME280;52789;59.980;30.346;2023-08-24T02:34:22;101337.34;;;12.67;100.00
66021;BME280;52789;59.980;30.346;2023-08-24T02:36:47;101339.69;;;12.70;100.00
66021;BME280;52789;59.980;30.346;2023-08-24T02:39:13;101324.81;;;12.68;100.00
66021;BME280;52789;59.980;30.346;2023-08-24T02:41:38;101305.22;;;12.51;100.00
66021;BME280;52789;59.980;30.346;2023-08-24T02:44:04;101316.25;;;12.56;100.00
66021;BME280;52789;59.980;30.346;2023-08-24T02:46:30;101330.66;;;12.71;100.00
66021;BME280;52789;59.980;30.346;2023-08-24T02:48:55;101320.97;;;12.70;100.00
66021;BME280;52789;59.980;30.346;2023-08-24T02:51:22;101336.72;;;12.82;100.00
66021;BME280;52789;59.980;30.346;2023-08-24T02:53:49;101312.50;;;12.75;100.00
66021;BME280;52789;59.980;30.346;2023-08-24T02:56:14;101330.03;;;12.86;100.00
66021;BME280;52789;59.980;30.346;2023-08-24T02:58:40;101267.16;;;12.49;100.00
66021;BME280;52789;59.980;30.346;2023-08-24T03:01:06;101344.25;;;12.94;100.00
66021;BME280;52789;59.980;30.346;2023-08-24T03:03:35;101332.38;;;12.89;100.00
66021;BME280;52789;59.980;30.346;2023-08-24T03:06:03;101330.38;;;12.91;100.00
66021;BME280;52789;59.980;30.346;2023-08-24T03:08:30;101340.41;;;12.97;100.00
66021;BME280;52789;59.980;30.346;2023-08-24T03:10:56;101341.41;;;12.96;100.00
66021;BME280;52789;59.980;30.346;2023-08-24T03:13:22;101339.06;;;12.93;100.00
66021;BME280;52789;59.980;30.346;2023-08-24T03:15:47;101344.41;;;12.93;100.00
66021;BME280;52789;59.980;30.346;2023-08-24T03:18:14;101344.94;;;12.96;100.00
66021;BME280;52789;59.980;30.346;2023-08-24T03:20:40;101331.72;;;12.95;100.00
66021;BME280;52789;59.980;30.346;2023-08-24T03:23:06;101331.75;;;13.03;100.00
66021;BME280;52789;59.980;30.346;2023-08-24T03:25:35;101341.13;;;13.15;100.00
66021;BME280;52789;59.980;30.346;2023-08-24T03:28:02;101319.53;;;13.00;100.00
66021;BME280;52789;59.980;30.346;2023-08-24T03:30:28;101345.50;;;13.24;100.00
66021;BME280;52789;59.980;30.346;2023-08-24T03:32:54;101347.53;;;13.30;100.00
66021;BME280;52789;59.980;30.346;2023-08-24T03:35:19;101312.53;;;13.16;100.00
66021;BME280;52789;59.980;30.346;2023-08-24T03:37:45;101351.56;;;13.43;100.00
66021;BME280;52789;59.980;30.346;2023-08-24T03:40:11;101348.38;;;13.47;100.00
66021;BME280;52789;59.980;30.346;2023-08-24T03:42:37;101340.50;;;13.46;100.00
66021;BME280;52789;59.980;30.346;2023-08-24T03:45:03;101351.03;;;13.55;100.00
66021;BME280;52789;59.980;30.346;2023-08-24T03:47:28;101260.22;;;12.97;100.00
66021;BME280;52789;59.980;30.346;2023-08-24T03:49:54;101353.25;;;13.60;100.00
66021;BME280;52789;59.980;30.346;2023-08-24T03:52:20;101349.88;;;13.58;100.00
66021;BME280;52789;59.980;30.346;2023-08-24T03:54:45;101353.06;;;13.61;100.00
66021;BME280;52789;59.980;30.346;2023-08-24T03:57:11;101344.00;;;13.54;100.00
66021;BME280;52789;59.980;30.346;2023-08-24T03:59:37;101347.06;;;13.59;100.00
66021;BME280;52789;59.980;30.346;2023-08-24T04:02:02;101343.84;;;13.56;100.00
66021;BME280;52789;59.980;30.346;2023-08-24T04:04:29;101351.03;;;13.55;100.00
66021;BME280;52789;59.980;30.346;2023-08-24T04:06:55;101355.56;;;13.55;100.00
66021;BME280;52789;59.980;30.346;2023-08-24T04:09:20;101354.91;;;13.61;100.00
66021;BME280;52789;59.980;30.346;2023-08-24T04:11:46;101347.19;;;13.58;100.00
66021;BME280;52789;59.980;30.346;2023-08-24T04:14:11;101355.91;;;13.68;100.00
66021;BME280;52789;59.980;30.346;2023-08-24T04:16:37;101349.69;;;13.76;100.00
66021;BME280;52789;59.980;30.346;2023-08-24T04:19:03;101347.16;;;13.82;100.00
66021;BME280;52789;59.980;30.346;2023-08-24T04:21:28;101354.56;;;13.88;100.00
66021;BME280;52789;59.980;30.346;2023-08-24T04:23:54;101345.50;;;13.98;100.00
66021;BME280;52789;59.980;30.346;2023-08-24T04:26:19;101364.00;;;14.23;100.00
66021;BME280;52789;59.980;30.346;2023-08-24T04:28:45;101363.09;;;14.39;97.79
66021;BME280;52789;59.980;30.346;2023-08-24T04:31:10;101352.72;;;14.44;95.87
66021;BME280;52789;59.980;30.346;2023-08-24T04:33:36;101354.69;;;14.59;95.34
66021;BME280;52789;59.980;30.346;2023-08-24T04:36:02;101348.63;;;14.65;92.71
66021;BME280;52789;59.980;30.346;2023-08-24T04:38:31;101370.03;;;14.81;91.88
66021;BME280;52789;59.980;30.346;2023-08-24T04:40:56;101331.94;;;14.54;89.74
66021;BME280;52789;59.980;30.346;2023-08-24T04:43:23;101362.53;;;14.68;89.25
66021;BME280;52789;59.980;30.346;2023-08-24T04:45:50;101347.53;;;14.51;89.14
66021;BME280;52789;59.980;30.346;2023-08-24T04:48:17;101365.66;;;14.80;89.29
66021;BME280;52789;59.980;30.346;2023-08-24T04:50:44;101368.47;;;14.86;88.90
66021;BME280;52789;59.980;30.346;2023-08-24T04:53:12;101366.56;;;14.95;87.89
66021;BME280;52789;59.980;30.346;2023-08-24T04:55:38;101369.72;;;15.07;87.91
66021;BME280;52789;59.980;30.346;2023-08-24T04:58:03;101349.19;;;15.14;87.96
66021;BME280;52789;59.980;30.346;2023-08-24T05:00:29;101352.41;;;15.32;86.80
66021;BME280;52789;59.980;30.346;2023-08-24T05:02:54;101358.31;;;15.50;86.18
66021;BME280;52789;59.980;30.346;2023-08-24T05:05:20;101345.34;;;15.54;85.75
66021;BME280;52789;59.980;30.346;2023-08-24T05:07:45;101356.94;;;15.77;86.07
66021;BME280;52789;59.980;30.346;2023-08-24T05:10:11;101327.66;;;15.68;84.77
66021;BME280;52789;59.980;30.346;2023-08-24T05:12:36;101341.84;;;15.76;82.70
66021;BME280;52789;59.980;30.346;2023-08-24T05:15:02;101335.97;;;15.58;83.08
66021;BME280;52789;59.980;30.346;2023-08-24T05:17:29;101356.41;;;15.59;83.70
66021;BME280;52789;59.980;30.346;2023-08-24T05:19:57;101322.38;;;15.37;84.03
66021;BME280;52789;59.980;30.346;2023-08-24T05:22:22;101344.84;;;15.36;85.30
66021;BME280;52789;59.980;30.346;2023-08-24T05:24:48;101342.28;;;15.19;85.61
66021;BME280;52789;59.980;30.346;2023-08-24T05:27:14;101323.06;;;14.85;85.41
66021;BME280;52789;59.980;30.346;2023-08-24T05:29:39;101325.28;;;14.73;86.04
66021;BME280;52789;59.980;30.346;2023-08-24T05:32:05;101330.22;;;14.62;87.01
66021;BME280;52789;59.980;30.346;2023-08-24T05:34:30;101337.03;;;14.72;87.01
66021;BME280;52789;59.980;30.346;2023-08-24T05:36:57;101325.28;;;14.73;85.80
66021;BME280;52789;59.980;30.346;2023-08-24T05:39:22;101325.63;;;14.78;86.11
66021;BME280;52789;59.980;30.346;2023-08-24T05:41:51;101326.41;;;14.87;85.53
66021;BME280;52789;59.980;30.346;2023-08-24T05:44:18;101345.81;;;14.89;86.25
66021;BME280;52789;59.980;30.346;2023-08-24T05:46:45;101333.19;;;14.75;85.74
66021;BME280;52789;59.980;30.346;2023-08-24T05:49:11;101341.19;;;14.83;86.70
66021;BME280;52789;59.980;30.346;2023-08-24T05:51:36;101350.47;;;14.95;86.21
66021;BME280;52789;59.980;30.346;2023-08-24T05:54:02;101351.94;;;15.06;85.74
66021;BME280;52789;59.980;30.346;2023-08-24T05:56:27;101325.78;;;15.08;85.27
66021;BME280;52789;59.980;30.346;2023-08-24T05:58:54;101324.41;;;15.12;85.55
66021;BME280;52789;59.980;30.346;2023-08-24T06:01:20;101335.59;;;15.15;84.63
66021;BME280;52789;59.980;30.346;2023-08-24T06:03:45;101338.59;;;15.21;84.46
66021;BME280;52789;59.980;30.346;2023-08-24T06:06:11;101316.47;;;15.18;84.87
66021;BME280;52789;59.980;30.346;2023-08-24T06:08:36;101333.75;;;15.39;84.89
66021;BME280;52789;59.980;30.346;2023-08-24T06:11:02;101325.53;;;15.40;84.69
66021;BME280;52789;59.980;30.346;2023-08-24T06:13:27;101341.09;;;15.45;83.35
66021;BME280;52789;59.980;30.346;2023-08-24T06:15:55;101333.03;;;15.45;83.84
66021;BME280;52789;59.980;30.346;2023-08-24T06:18:22;101296.22;;;15.31;82.96
66021;BME280;52789;59.980;30.346;2023-08-24T06:20:47;101314.72;;;15.48;83.32
66021;BME280;52789;59.980;30.346;2023-08-24T06:23:17;101342.03;;;15.75;83.27
66021;BME280;52789;59.980;30.346;2023-08-24T06:25:43;101337.22;;;15.70;82.26
66021;BME280;52789;59.980;30.346;2023-08-24T06:28:08;101344.63;;;15.83;82.95
66021;BME280;52789;59.980;30.346;2023-08-24T06:30:41;101345.31;;;16.00;81.63
66021;BME280;52789;59.980;30.346;2023-08-24T06:33:08;101335.94;;;16.10;80.74
66021;BME280;52789;59.980;30.346;2023-08-24T06:35:36;101346.25;;;16.22;80.01
66021;BME280;52789;59.980;30.346;2023-08-24T06:38:03;101349.47;;;16.17;79.38
66021;BME280;52789;59.980;30.346;2023-08-24T06:40:29;101345.03;;;16.09;80.77
66021;BME280;52789;59.980;30.346;2023-08-24T06:42:56;101335.56;;;16.14;79.91
66021;BME280;52789;59.980;30.346;2023-08-24T06:45:21;101353.38;;;16.29;80.40
66021;BME280;52789;59.980;30.346;2023-08-24T06:47:47;101347.16;;;16.43;79.84
66021;BME280;52789;59.980;30.346;2023-08-24T06:50:12;101335.75;;;16.56;79.91
66021;BME280;52789;59.980;30.346;2023-08-24T06:52:38;101338.50;;;16.63;79.81
66021;BME280;52789;59.980;30.346;2023-08-24T06:55:04;101340.47;;;16.69;80.36
66021;BME280;52789;59.980;30.346;2023-08-24T06:57:29;101343.63;;;16.58;80.11
66021;BME280;52789;59.980;30.346;2023-08-24T06:59:55;101345.28;;;16.59;81.09
66021;BME280;52789;59.980;30.346;2023-08-24T07:02:20;101349.56;;;16.68;79.57
66021;BME280;52789;59.980;30.346;2023-08-24T07:04:46;101340.69;;;16.53;78.37
66021;BME280;52789;59.980;30.346;2023-08-24T07:07:12;101348.44;;;16.48;80.09
66021;BME280;52789;59.980;30.346;2023-08-24T07:09:37;101336.97;;;16.39;80.84
66021;BME280;52789;59.980;30.346;2023-08-24T07:12:03;101349.56;;;16.38;82.04
66021;BME280;52789;59.980;30.346;2023-08-24T07:14:32;101337.81;;;16.25;82.50
66021;BME280;52789;59.980;30.346;2023-08-24T07:16:57;101365.06;;;16.36;80.89
66021;BME280;52789;59.980;30.346;2023-08-24T07:19:22;101361.81;;;16.26;81.68
66021;BME280;52789;59.980;30.346;2023-08-24T07:21:48;101361.06;;;16.32;81.94
66021;BME280;52789;59.980;30.346;2023-08-24T07:24:13;101359.19;;;16.48;81.54
66021;BME280;52789;59.980;30.346;2023-08-24T07:26:43;101335.31;;;16.53;81.77
66021;BME280;52789;59.980;30.346;2023-08-24T07:29:08;101346.59;;;16.63;80.37
66021;BME280;52789;59.980;30.346;2023-08-24T07:31:34;101367.25;;;16.62;80.73
66021;BME280;52789;59.980;30.346;2023-08-24T07:34:00;101364.94;;;16.74;81.55
66021;BME280;52789;59.980;30.346;2023-08-24T07:36:25;101321.94;;;16.59;80.70
66021;BME280;52789;59.980;30.346;2023-08-24T07:38:51;101355.97;;;16.82;81.01
66021;BME280;52789;59.980;30.346;2023-08-24T07:41:16;101356.16;;;16.80;81.71
66021;BME280;52789;59.980;30.346;2023-08-24T07:43:43;101368.91;;;16.93;81.23
66021;BME280;52789;59.980;30.346;2023-08-24T07:46:09;101346.94;;;16.89;81.21
66021;BME280;52789;59.980;30.346;2023-08-24T07:48:35;101359.63;;;16.95;81.29
66021;BME280;52789;59.980;30.346;2023-08-24T07:51:00;101329.44;;;16.64;80.60
66021;BME280;52789;59.980;30.346;2023-08-24T07:53:26;101340.19;;;16.64;81.44
66021;BME280;52789;59.980;30.346;2023-08-24T07:55:53;101381.78;;;16.97;82.02
66021;BME280;52789;59.980;30.346;2023-08-24T07:58:19;101377.91;;;17.21;81.57
66021;BME280;52789;59.980;30.346;2023-08-24T08:00:44;101333.34;;;16.97;80.47
66021;BME280;52789;59.980;30.346;2023-08-24T08:03:09;101358.63;;;17.18;80.20
66021;BME280;52789;59.980;30.346;2023-08-24T08:05:35;101316.31;;;16.90;80.83
66021;BME280;52789;59.980;30.346;2023-08-24T08:08:00;101371.31;;;17.24;81.08
66021;BME280;52789;59.980;30.346;2023-08-24T08:10:26;101377.09;;;17.42;81.46
66021;BME280;52789;59.980;30.346;2023-08-24T08:12:52;101380.44;;;17.65;79.87
66021;BME280;52789;59.980;30.346;2023-08-24T08:15:17;101373.06;;;17.53;78.82
66021;BME280;52789;59.980;30.346;2023-08-24T08:17:43;101380.63;;;17.43;80.26
66021;BME280;52789;59.980;30.346;2023-08-24T08:20:08;101353.66;;;17.36;80.03
66021;BME280;52789;59.980;30.346;2023-08-24T08:22:35;101378.00;;;17.71;79.52
66021;BME280;52789;59.980;30.346;2023-08-24T08:25:04;101377.03;;;17.78;78.59
66021;BME280;52789;59.980;30.346;2023-08-24T08:27:30;101385.16;;;17.85;78.36
66021;BME280;52789;59.980;30.346;2023-08-24T08:29:55;101386.16;;;17.77;78.28
66021;BME280;52789;59.980;30.346;2023-08-24T08:32:21;101364.63;;;17.62;78.57
66021;BME280;52789;59.980;30.346;2023-08-24T08:34:47;101373.25;;;17.73;78.33
66021;BME280;52789;59.980;30.346;2023-08-24T08:37:12;101375.81;;;17.81;79.11
66021;BME280;52789;59.980;30.346;2023-08-24T08:39:38;101379.34;;;17.81;78.07
66021;BME280;52789;59.980;30.346;2023-08-24T08:42:03;101365.94;;;17.67;78.32
66021;BME280;52789;59.980;30.346;2023-08-24T08:44:30;101375.81;;;17.81;77.52
66021;BME280;52789;59.980;30.346;2023-08-24T08:46:59;101367.19;;;17.92;78.06
66021;BME280;52789;59.980;30.346;2023-08-24T08:49:26;101368.78;;;18.14;76.50
66021;BME280;52789;59.980;30.346;2023-08-24T08:51:52;101359.44;;;18.10;74.59
66021;BME280;52789;59.980;30.346;2023-08-24T08:54:18;101356.31;;;18.07;76.41
66021;BME280;52789;59.980;30.346;2023-08-24T08:56:43;101364.19;;;18.08;76.03
66021;BME280;52789;59.980;30.346;2023-08-24T08:59:11;101362.97;;;18.11;75.70
66021;BME280;52789;59.980;30.346;2023-08-24T09:01:39;101360.31;;;18.17;75.68
66021;BME280;52789;59.980;30.346;2023-08-24T09:04:06;101366.88;;;18.43;74.13
66021;BME280;52789;59.980;30.346;2023-08-24T09:06:33;101362.00;;;18.60;72.54
66021;BME280;52789;59.980;30.346;2023-08-24T09:09:00;101352.38;;;18.85;72.29
66021;BME280;52789;59.980;30.346;2023-08-24T09:11:26;101359.09;;;19.09;70.80
66021;BME280;52789;59.980;30.346;2023-08-24T09:13:51;101363.00;;;19.00;71.25
66021;BME280;52789;59.980;30.346;2023-08-24T09:16:17;101357.09;;;18.76;71.33
66021;BME280;52789;59.980;30.346;2023-08-24T09:18:45;101333.91;;;18.41;71.94
66021;BME280;52789;59.980;30.346;2023-08-24T09:21:12;101350.66;;;18.30;72.00
66021;BME280;52789;59.980;30.346;2023-08-24T09:23:43;101344.00;;;18.25;73.20
66021;BME280;52789;59.980;30.346;2023-08-24T09:26:10;101332.81;;;18.29;73.88
66021;BME280;52789;59.980;30.346;2023-08-24T09:28:35;101353.72;;;18.61;72.31
66021;BME280;52789;59.980;30.346;2023-08-24T09:31:01;101356.66;;;18.66;71.78
66021;BME280;52789;59.980;30.346;2023-08-24T09:33:29;101352.31;;;18.72;70.52
66021;BME280;52789;59.980;30.346;2023-08-24T09:35:55;101349.22;;;18.75;70.95
66021;BME280;52789;59.980;30.346;2023-08-24T09:38:27;101334.13;;;18.80;71.64
66021;BME280;52789;59.980;30.346;2023-08-24T09:40:54;101242.44;;;18.46;70.99
66021;BME280;52789;59.980;30.346;2023-08-24T09:43:20;101332.31;;;19.21;69.38
66021;BME280;52789;59.980;30.346;2023-08-24T09:48:15;101337.25;;;18.97;70.22
66021;BME280;52789;59.980;30.346;2023-08-24T09:50:44;101320.16;;;18.70;70.07
66021;BME280;52789;59.980;30.346;2023-08-24T09:53:16;101326.78;;;18.68;72.03
66021;BME280;52789;59.980;30.346;2023-08-24T09:55:48;101321.41;;;18.74;71.47
66021;BME280;52789;59.980;30.346;2023-08-24T09:58:15;101328.75;;;18.94;70.28
66021;BME280;52789;59.980;30.346;2023-08-24T10:00:41;101327.91;;;19.00;70.97
66021;BME280;52789;59.980;30.346;2023-08-24T10:03:07;101314.63;;;18.92;70.42
66021;BME280;52789;59.980;30.346;2023-08-24T10:05:33;101288.88;;;18.89;71.18
66021;BME280;52789;59.980;30.346;2023-08-24T10:08:00;101318.19;;;19.18;70.07
66021;BME280;52789;59.980;30.346;2023-08-24T10:10:27;101321.75;;;19.26;71.08
66021;BME280;52789;59.980;30.346;2023-08-24T10:13:06;101310.34;;;19.43;70.52
66021;BME280;52789;59.980;30.346;2023-08-24T10:15:35;101313.25;;;19.48;70.19
66021;BME280;52789;59.980;30.346;2023-08-24T10:18:02;101320.69;;;19.27;68.95
66021;BME280;52789;59.980;30.346;2023-08-24T10:20:29;101310.25;;;18.84;70.79
66021;BME280;52789;59.980;30.346;2023-08-24T10:22:55;101326.03;;;18.80;72.25
66021;BME280;52789;59.980;30.346;2023-08-24T10:25:22;101305.81;;;18.63;72.99
66021;BME280;52789;59.980;30.346;2023-08-24T10:27:50;101317.44;;;18.70;73.59
66021;BME280;52789;59.980;30.346;2023-08-24T10:30:16;101313.50;;;18.66;72.93
66021;BME280;52789;59.980;30.346;2023-08-24T10:32:43;101296.84;;;18.56;73.24
66021;BME280;52789;59.980;30.346;2023-08-24T10:35:11;101318.00;;;18.52;73.20
66021;BME280;52789;59.980;30.346;2023-08-24T10:37:36;101312.28;;;18.27;73.39
66021;BME280;52789;59.980;30.346;2023-08-24T10:40:02;101312.81;;;18.16;75.08
66021;BME280;52789;59.980;30.346;2023-08-24T10:42:43;101286.69;;;18.17;76.60
66021;BME280;52789;59.980;30.346;2023-08-24T10:45:11;101293.81;;;18.24;74.03
66021;BME280;52789;59.980;30.346;2023-08-24T10:47:44;101290.06;;;18.25;73.95
66021;BME280;52789;59.980;30.346;2023-08-24T10:50:11;101288.81;;;18.21;74.01
66021;BME280;52789;59.980;30.346;2023-08-24T10:52:37;101280.06;;;18.19;73.40
66021;BME280;52789;59.980;30.346;2023-08-24T10:55:21;101269.06;;;18.14;72.80
66021;BME280;52789;59.980;30.346;2023-08-24T10:58:01;101295.69;;;18.31;73.44
66021;BME280;52789;59.980;30.346;2023-08-24T11:00:29;101292.88;;;18.52;74.21
66021;BME280;52789;59.980;30.346;2023-08-24T11:02:56;101290.06;;;18.73;70.79
66021;BME280;52789;59.980;30.346;2023-08-24T11:05:29;101290.53;;;18.90;71.04
66021;BME280;52789;59.980;30.346;2023-08-24T11:07:59;101297.44;;;19.12;68.46
66021;BME280;52789;59.980;30.346;2023-08-24T11:13:08;101293.50;;;19.15;69.01
66021;BME280;52789;59.980;30.346;2023-08-24T11:15:43;101301.16;;;19.11;69.82
66021;BME280;52789;59.980;30.346;2023-08-24T11:20:46;101288.50;;;19.18;69.85
66021;BME280;52789;59.980;30.346;2023-08-24T11:23:12;101282.25;;;19.31;70.41
66021;BME280;52789;59.980;30.346;2023-08-24T11:25:38;101293.94;;;19.58;69.41
66021;BME280;52789;59.980;30.346;2023-08-24T11:28:04;101262.53;;;19.50;68.39
66021;BME280;52789;59.980;30.346;2023-08-24T11:30:33;101283.75;;;19.67;65.46
66021;BME280;52789;59.980;30.346;2023-08-24T11:33:00;101269.22;;;19.55;64.65
66021;BME280;52789;59.980;30.346;2023-08-24T11:35:26;101293.72;;;19.53;66.14
66021;BME280;52789;59.980;30.346;2023-08-24T11:37:58;101290.78;;;19.35;65.46
66021;BME280;52789;59.980;30.346;2023-08-24T11:40:23;101285.19;;;19.10;65.73
66021;BME280;52789;59.980;30.346;2023-08-24T11:42:58;101271.84;;;18.88;67.32
66021;BME280;52789;59.980;30.346;2023-08-24T11:45:24;101279.53;;;18.98;68.02
66021;BME280;52789;59.980;30.346;2023-08-24T11:47:55;101269.56;;;18.99;67.49
66021;BME280;52789;59.980;30.346;2023-08-24T11:50:20;101256.50;;;18.96;68.50
66021;BME280;52789;59.980;30.346;2023-08-24T11:52:45;101278.31;;;19.14;68.38
66021;BME280;52789;59.980;30.346;2023-08-24T11:55:14;101275.84;;;19.12;68.91
66021;BME280;52789;59.980;30.346;2023-08-24T11:57:41;101279.56;;;19.18;69.07
66021;BME280;52789;59.980;30.346;2023-08-24T12:00:07;101274.16;;;19.18;68.47
66021;BME280;52789;59.980;30.346;2023-08-24T12:02:34;101272.72;;;19.22;68.03
66021;BME280;52789;59.980;30.346;2023-08-24T12:05:01;101268.13;;;19.29;68.81
66021;BME280;52789;59.980;30.346;2023-08-24T12:07:31;101267.09;;;19.37;66.53
66021;BME280;52789;59.980;30.346;2023-08-24T12:10:00;101258.16;;;19.36;66.39
66021;BME280;52789;59.980;30.346;2023-08-24T12:12:27;101253.81;;;19.42;67.83
66021;BME280;52789;59.980;30.346;2023-08-24T12:14:55;101263.81;;;19.55;65.92
66021;BME280;52789;59.980;30.346;2023-08-24T12:17:20;101228.06;;;19.39;66.49
66021;BME280;52789;59.980;30.346;2023-08-24T12:20:00;101251.94;;;19.62;67.53
66021;BME280;52789;59.980;30.346;2023-08-24T12:22:26;101246.13;;;19.59;66.15
66021;BME280;52789;59.980;30.346;2023-08-24T12:24:52;101260.03;;;19.82;65.86
66021;BME280;52789;59.980;30.346;2023-08-24T12:27:22;101258.97;;;19.96;63.29
66021;BME280;52789;59.980;30.346;2023-08-24T12:29:48;101207.69;;;19.70;60.25
66021;BME280;52789;59.980;30.346;2023-08-24T12:32:14;101238.78;;;19.92;60.96
66021;BME280;52789;59.980;30.346;2023-08-24T12:34:46;101248.34;;;20.01;61.62
66021;BME280;52789;59.980;30.346;2023-08-24T12:37:11;101217.41;;;19.84;59.41
66021;BME280;52789;59.980;30.346;2023-08-24T12:39:38;101243.34;;;19.98;57.45
66021;BME280;52789;59.980;30.346;2023-08-24T12:42:04;101244.19;;;19.92;58.18
66021;BME280;52789;59.980;30.346;2023-08-24T12:44:30;101232.97;;;19.89;59.06